createdAt,value
2022-08-30T00:02:21.785Z,84.34
2022-08-30T00:07:27.793Z,85.39
2022-08-30T00:12:32.835Z,85.65
2022-08-30T00:17:35.314Z,84.56
2022-08-30T00:22:38.457Z,84.35
2022-08-30T00:27:43.722Z,91.48
2022-08-30T00:32:46.715Z,83.52
2022-08-30T00:37:50.853Z,85.70
2022-08-30T00:42:59.359Z,81.44
2022-08-30T00:48:02.645Z,88.11
2022-08-30T00:53:08.168Z,82.61
2022-08-30T00:58:19.908Z,84.05
2022-08-30T01:03:22.545Z,82.88
2022-08-30T01:08:25.072Z,85.09
2022-08-30T01:13:29.274Z,88.37
2022-08-30T01:18:32.890Z,87.42
2022-08-30T01:23:40.404Z,94.33
2022-08-30T01:28:43.519Z,92.84
2022-08-30T01:33:46.010Z,89.67
2022-08-30T01:38:52.446Z,92.23
2022-08-30T01:43:58.266Z,88.16
2022-08-30T01:49:01.458Z,90.42
2022-08-30T01:54:05.726Z,86.93
2022-08-30T01:59:08.346Z,93.05
2022-08-30T02:04:13.518Z,93.53
2022-08-30T02:09:17.393Z,86.97
2022-08-30T02:14:21.200Z,88.43
2022-08-30T02:19:23.806Z,86.32
2022-08-30T02:24:27.683Z,90.08
2022-08-30T02:29:30.216Z,87.23
2022-08-30T02:34:32.916Z,90.28
2022-08-30T02:39:36.756Z,85.35
2022-08-30T02:44:39.244Z,84.21
2022-08-30T02:49:41.920Z,90.76
2022-08-30T02:54:46.305Z,95.76
2022-08-30T02:59:51.009Z,94.69
2022-08-30T03:04:54.029Z,88.71
2022-08-30T03:09:58.378Z,87.62
2022-08-30T03:15:00.974Z,91.21
2022-08-30T03:20:04.828Z,89.04
2022-08-30T03:25:09.711Z,87.06
2022-08-30T03:30:13.702Z,87.07
2022-08-30T03:35:17.517Z,86.91
2022-08-30T03:40:23.602Z,85.15
2022-08-30T03:45:26.343Z,85.40
2022-08-30T03:50:29.118Z,84.24
2022-08-30T03:55:32.971Z,84.25
2022-08-30T04:00:35.499Z,86.62
2022-08-30T04:05:38.107Z,85.69
2022-08-30T04:10:41.930Z,85.33
2022-08-30T04:15:44.576Z,88.63
2022-08-30T04:20:47.602Z,85.69
2022-08-30T04:25:51.447Z,84.55
2022-08-30T04:30:53.999Z,84.43
2022-08-30T04:35:56.457Z,83.19
2022-08-30T04:41:00.823Z,83.41
2022-08-30T04:46:06.970Z,83.99
2022-08-30T04:51:11.864Z,86.39
2022-08-30T04:56:18.093Z,84.42
2022-08-30T05:01:23.719Z,87.01
2022-08-30T05:06:28.528Z,84.51
2022-08-30T05:11:32.615Z,84.74
2022-08-30T05:16:35.281Z,84.27
2022-08-30T05:21:40.574Z,84.85
2022-08-30T05:26:45.404Z,77.81
2022-08-30T05:31:47.981Z,80.15
2022-08-30T05:36:50.781Z,81.16
2022-08-30T05:41:57.172Z,83.02
2022-08-30T05:47:00.137Z,87.20
2022-08-30T05:52:02.694Z,84.84
2022-08-30T05:57:07.444Z,85.17
2022-08-30T06:02:10.051Z,84.16
2022-08-30T06:07:14.939Z,86.45
2022-08-30T06:12:20.931Z,89.82
2022-08-30T06:17:23.498Z,85.53
2022-08-30T06:22:26.054Z,88.38
2022-08-30T06:27:31.240Z,88.16
2022-08-30T06:32:34.011Z,87.80
2022-08-30T06:37:36.818Z,85.73
2022-08-30T06:42:40.811Z,88.08
2022-08-30T06:47:44.972Z,84.97
2022-08-30T06:52:47.720Z,84.01
2022-08-30T06:57:52.123Z,84.10
2022-08-30T07:02:54.797Z,84.80
2022-08-30T07:07:57.649Z,91.49
2022-08-30T07:13:01.463Z,87.48
2022-08-30T07:18:21.894Z,89.65
2022-08-30T07:23:24.938Z,87.52
2022-08-30T07:28:28.893Z,88.13
2022-08-30T07:33:31.680Z,87.32
2022-08-30T07:38:35.092Z,85.88
2022-08-30T07:43:39.755Z,85.68
2022-08-30T07:48:44.279Z,81.46
2022-08-30T07:53:47.472Z,80.63
2022-08-30T07:58:52.015Z,81.19
2022-08-30T08:03:54.560Z,80.64
2022-08-30T08:09:02.134Z,80.75
2022-08-30T08:14:06.101Z,80.73
2022-08-30T08:19:09.378Z,80.54
2022-08-30T08:24:12.460Z,77.95
2022-08-30T08:29:16.396Z,77.68
2022-08-30T08:34:23.298Z,78.17
2022-08-30T08:39:26.047Z,77.72
2022-08-30T08:44:50.770Z,75.90
2022-08-30T08:50:00.774Z,76.67
2022-08-30T08:55:10.261Z,73.69
2022-08-30T09:00:16.260Z,75.68
2022-08-30T09:05:22.937Z,74.40
2022-08-30T09:10:47.034Z,72.25
2022-08-30T09:15:55.202Z,74.04
2022-08-30T09:21:07.720Z,72.02
2022-08-30T09:26:10.865Z,69.96
2022-08-30T09:31:21.453Z,69.32
2022-08-30T09:36:28.209Z,69.49
2022-08-30T09:41:40.609Z,67.78
2022-08-30T09:46:50.801Z,67.63
2022-08-30T09:52:00.274Z,66.68
2022-08-30T09:57:13.246Z,66.59
2022-08-30T10:02:42.621Z,63.18
2022-08-30T10:07:55.645Z,63.99
2022-08-30T10:13:06.255Z,64.75
2022-08-30T10:18:18.191Z,62.73
2022-08-30T10:23:26.777Z,61.59
2022-08-30T10:28:35.971Z,63.93
2022-08-30T10:33:49.126Z,63.46
2022-08-30T10:38:56.190Z,56.21
2022-08-30T10:44:10.182Z,50.32
2022-08-30T10:49:42.971Z,44.31
2022-08-30T10:55:11.537Z,46.60
2022-08-30T11:00:23.310Z,46.03
2022-08-30T11:05:45.878Z,41.95
2022-08-30T11:10:56.864Z,48.43
2022-08-30T11:16:03.907Z,43.34
2022-08-30T11:21:25.763Z,46.25
2022-08-30T11:27:02.461Z,48.50
2022-08-30T11:32:21.946Z,51.95
2022-08-30T11:37:39.649Z,52.25
2022-08-30T11:42:45.741Z,52.36
2022-08-30T11:47:51.004Z,53.26
2022-08-30T11:53:01.719Z,53.57
2022-08-30T11:58:16.993Z,52.23
2022-08-30T12:03:33.650Z,47.08
2022-08-30T12:08:58.034Z,44.90
2022-08-30T12:14:17.242Z,48.04
2022-08-30T12:19:22.181Z,51.81
2022-08-30T12:24:29.239Z,52.33
2022-08-30T12:29:33.005Z,53.33
2022-08-30T12:34:50.033Z,54.26
2022-08-30T12:40:06.123Z,55.64
2022-08-30T12:45:14.629Z,56.42
2022-08-30T12:50:22.434Z,53.39
2022-08-30T12:55:29.397Z,57.31
2022-08-30T13:00:35.210Z,57.37
2022-08-30T13:05:48.575Z,57.73
2022-08-30T13:11:07.971Z,57.31
2022-08-30T13:16:21.764Z,56.57
2022-08-30T13:21:30.149Z,56.48
2022-08-30T13:26:36.359Z,57.99
2022-08-30T13:31:38.991Z,56.75
2022-08-30T13:36:47.947Z,55.38
2022-08-30T13:41:54.976Z,55.46
2022-08-30T13:47:35.692Z,55.54
2022-08-30T13:52:40.209Z,56.24
2022-08-30T13:57:59.381Z,56.29
2022-08-30T14:03:03.423Z,57.32
2022-08-30T14:08:44.187Z,57.79
2022-08-30T14:13:32.890Z,57.06
2022-08-30T14:18:35.582Z,54.70
2022-08-30T14:23:40.282Z,56.51
2022-08-30T14:28:46.082Z,59.96
2022-08-30T14:33:54.188Z,58.05
2022-08-30T14:38:56.841Z,60.13
2022-08-30T14:44:01.377Z,60.31
2022-08-30T14:49:05.781Z,59.13
2022-08-30T14:54:09.307Z,59.61
2022-08-30T14:59:14.148Z,60.50
2022-08-30T15:04:17.277Z,60.88
2022-08-30T15:09:23.487Z,59.51
2022-08-30T15:14:28.685Z,58.90
2022-08-30T15:19:31.841Z,58.52
2022-08-30T15:24:34.667Z,57.63
2022-08-30T15:29:38.580Z,57.81
2022-08-30T15:34:41.282Z,58.42
2022-08-30T15:39:43.797Z,58.67
2022-08-30T15:44:50.968Z,59.28
2022-08-30T15:49:57.051Z,61.77
2022-08-30T15:55:00.065Z,61.99
2022-08-30T16:00:06.485Z,61.20
2022-08-30T16:05:09.718Z,61.37
2022-08-30T16:10:12.187Z,61.18
2022-08-30T16:15:16.672Z,62.48
2022-08-30T16:20:19.632Z,62.77
2022-08-30T16:25:22.225Z,62.41
2022-08-30T16:30:27.554Z,60.32
2022-08-30T16:35:30.013Z,61.39
2022-08-30T16:40:32.551Z,61.74
2022-08-30T16:45:38.062Z,60.86
2022-08-30T16:50:47.986Z,62.84
2022-08-30T16:56:15.707Z,62.35
2022-08-30T17:01:28.279Z,62.13
2022-08-30T17:07:13.756Z,62.04
2022-08-30T17:12:51.859Z,62.88
2022-08-30T17:17:56.785Z,65.42
2022-08-30T17:23:02.036Z,65.14
2022-08-30T17:28:06.262Z,64.89
2022-08-30T17:33:11.132Z,63.18
2022-08-30T17:38:14.160Z,63.73
2022-08-30T17:43:16.762Z,62.33
2022-08-30T17:48:20.593Z,60.97
2022-08-30T17:53:23.137Z,60.85
2022-08-30T17:58:25.745Z,63.08
2022-08-30T18:03:31.185Z,64.98
2022-08-30T18:08:36.056Z,67.56
2022-08-30T18:13:38.794Z,67.72
2022-08-30T18:18:42.861Z,71.52
2022-08-30T18:23:45.766Z,74.73
2022-08-30T18:28:48.785Z,76.49
2022-08-30T18:33:52.837Z,77.53
2022-08-30T18:38:55.645Z,76.95
2022-08-30T18:44:17.052Z,77.53
2022-08-30T18:49:22.024Z,80.73
2022-08-30T18:54:24.998Z,79.55
2022-08-30T18:59:35.571Z,81.13
2022-08-30T19:04:42.779Z,81.03
2022-08-30T19:09:46.739Z,83.36
2022-08-30T19:14:49.793Z,84.91
2022-08-30T19:19:54.760Z,83.80
2022-08-30T19:24:57.282Z,81.37
2022-08-30T19:30:00.320Z,77.26
2022-08-30T19:35:05.373Z,79.12
2022-08-30T19:40:11.841Z,76.56
2022-08-30T19:45:18.103Z,79.41
2022-08-30T19:50:22.920Z,79.52
2022-08-30T19:55:29.982Z,77.18
2022-08-30T20:00:34.225Z,78.69
2022-08-30T20:05:40.297Z,75.59
2022-08-30T20:10:44.143Z,79.68
2022-08-30T20:15:46.801Z,83.20
2022-08-30T20:20:50.681Z,86.77
2022-08-30T20:25:55.538Z,88.69
2022-08-30T20:30:58.634Z,85.34
2022-08-30T20:36:03.328Z,82.52
2022-08-30T20:41:10.144Z,83.92
2022-08-30T20:46:15.481Z,79.88
2022-08-30T20:51:22.146Z,78.30
2022-08-30T20:56:27.732Z,77.74
2022-08-30T21:01:30.571Z,77.13
2022-08-30T21:06:37.383Z,77.01
2022-08-30T21:11:43.076Z,76.69
2022-08-30T21:16:47.407Z,76.86
2022-08-30T21:21:51.326Z,76.25
2022-08-30T21:26:55.556Z,77.02
2022-08-30T21:31:58.936Z,76.79
2022-08-30T21:37:02.727Z,77.58
2022-08-30T21:42:06.139Z,77.51
2022-08-30T21:47:08.648Z,77.30
2022-08-30T21:52:12.523Z,77.49
2022-08-30T21:57:16.867Z,78.39
2022-08-30T22:02:19.545Z,77.35
2022-08-30T22:07:23.451Z,77.13
2022-08-30T22:12:26.021Z,79.18
2022-08-30T22:17:28.596Z,85.03
2022-08-30T22:22:32.450Z,82.22
2022-08-30T22:27:35.083Z,80.67
2022-08-30T22:32:38.551Z,84.76
2022-08-30T22:37:42.579Z,81.36
2022-08-30T22:42:50.423Z,83.20
2022-08-30T22:47:53.025Z,83.92
2022-08-30T22:52:57.128Z,93.03
2022-08-30T22:57:59.847Z,87.29
2022-08-30T23:03:02.563Z,87.59
2022-08-30T23:08:07.885Z,84.92
2022-08-30T23:13:10.573Z,82.54
2022-08-30T23:18:13.255Z,81.86
2022-08-30T23:23:34.773Z,81.70
2022-08-30T23:28:54.604Z,84.22
2022-08-30T23:34:15.758Z,82.74
2022-08-30T23:39:37.248Z,82.00
2022-08-30T23:44:57.273Z,82.85
2022-08-30T23:50:17.546Z,84.08
2022-08-30T23:55:38.981Z,83.93
